Time;durP1;ratioP1;P1;durP2;ratioP2;P2;SDS_P1;SDS_P2;PMS_P1;PMS_P2;Temp;Humidity;BMP_temperature;BMP_pressure;BME280_temperature;BME280_humidity;BME280_pressure;Samples;Min_cycle;Max_cycle;Signal;HPM_P1;HPM_P2
2021/09/10 00:01:26;;;;;;;3.70;3.40;;;23.20;99.90;;;;;;5073705;28;20180;-77
2021/09/10 00:03:52;;;;;;;5.83;4.27;;;23.20;99.90;;;;;;5072898;28;20578;-77
2021/09/10 00:06:17;;;;;;;4.23;3.83;;;23.10;99.90;;;;;;5073674;28;20169;-77
2021/09/10 00:08:43;;;;;;;3.30;3.00;;;23.10;99.90;;;;;;5073071;28;20209;-77
2021/09/10 00:11:09;;;;;;;3.83;3.53;;;23.00;99.90;;;;;;5055706;28;20250;-77
2021/09/10 00:13:35;;;;;;;6.30;4.30;;;22.90;99.90;;;;;;5073444;28;20189;-77
2021/09/10 00:16:03;;;;;;;3.13;2.83;;;22.80;99.90;;;;;;5073599;28;21171;-77
2021/09/10 00:18:29;;;;;;;3.67;3.20;;;22.70;99.90;;;;;;5055116;28;20179;-77
2021/09/10 00:20:55;;;;;;;3.57;3.27;;;22.60;99.90;;;;;;5055439;28;20614;-77
2021/09/10 00:23:21;;;;;;;4.37;3.97;;;22.60;99.90;;;;;;5073540;28;20586;-76
2021/09/10 00:25:46;;;;;;;4.43;4.03;;;22.50;99.90;;;;;;5073792;28;20161;-76
2021/09/10 00:28:12;;;;;;;3.73;3.43;;;22.50;99.90;;;;;;5055265;28;20211;-77
2021/09/10 00:30:38;;;;;;;3.70;3.30;;;22.40;99.90;;;;;;5078431;28;20742;-77
2021/09/10 00:33:03;;;;;;;3.77;3.43;;;22.40;99.90;;;;;;5055373;28;20667;-77
2021/09/10 00:35:29;;;;;;;6.90;4.57;;;22.40;99.90;;;;;;5073058;28;20254;-77
2021/09/10 00:37:55;;;;;;;5.30;3.67;;;22.40;99.90;;;;;;5072809;28;20176;-77
2021/09/10 00:40:20;;;;;;;4.87;3.67;;;22.30;99.90;;;;;;5073254;28;20188;-77
2021/09/10 00:42:46;;;;;;;3.00;2.70;;;22.30;99.90;;;;;;5062439;28;20283;-77
2021/09/10 00:45:12;;;;;;;3.67;3.33;;;22.30;99.90;;;;;;5052976;28;20529;-77
2021/09/10 00:47:40;;;;;;;4.10;3.80;;;22.30;99.90;;;;;;5051773;28;20208;-77
2021/09/10 00:50:06;;;;;;;4.23;3.43;;;22.30;99.90;;;;;;5052813;28;20223;-77
2021/09/10 00:52:31;;;;;;;3.97;3.67;;;22.30;99.90;;;;;;5051869;28;21285;-78
2021/09/10 00:54:58;;;;;;;3.60;3.30;;;22.30;99.90;;;;;;5052414;28;20622;-77
2021/09/10 00:57:24;;;;;;;4.13;3.83;;;22.30;99.90;;;;;;5052543;28;20169;-76
2021/09/10 00:59:49;;;;;;;4.80;3.63;;;22.30;99.90;;;;;;5053309;28;20619;-75
2021/09/10 01:02:16;;;;;;;3.63;3.33;;;22.30;99.90;;;;;;5053091;28;20219;-77
2021/09/10 01:04:42;;;;;;;3.40;3.00;;;22.30;99.90;;;;;;5053090;28;20192;-77
2021/09/10 01:07:10;;;;;;;3.63;3.37;;;22.30;99.90;;;;;;5057021;28;21250;-76
2021/09/10 01:09:37;;;;;;;4.10;3.80;;;22.20;99.90;;;;;;5053029;28;20606;-77
2021/09/10 01:12:04;;;;;;;4.80;3.73;;;22.20;99.90;;;;;;5052868;28;20666;-77
2021/09/10 01:14:30;;;;;;;3.63;3.33;;;22.20;99.90;;;;;;5051684;28;20980;-77
2021/09/10 01:16:56;;;;;;;4.60;4.20;;;22.20;99.90;;;;;;5051994;28;20591;-77
2021/09/10 01:19:27;;;;;;;3.73;3.23;;;22.20;99.90;;;;;;5051340;28;20622;-77
2021/09/10 01:21:56;;;;;;;4.10;3.70;;;22.20;99.90;;;;;;5050382;28;20262;-77
2021/09/10 01:25:03;;;;;;;4.20;3.87;;;22.20;99.90;;;;;;5052424;28;21134;-77
2021/09/10 01:27:29;;;;;;;3.23;2.93;;;22.20;99.90;;;;;;5052057;28;20622;-76
2021/09/10 01:29:56;;;;;;;4.47;4.03;;;22.20;99.90;;;;;;5052226;28;20915;-77
2021/09/10 01:32:22;;;;;;;4.03;3.07;;;22.20;99.90;;;;;;5052469;28;21003;-77
2021/09/10 01:34:48;;;;;;;4.97;3.63;;;22.20;99.90;;;;;;5052111;28;20662;-77
2021/09/10 01:37:13;;;;;;;4.00;3.63;;;22.20;99.90;;;;;;5051841;28;20653;-78
2021/09/10 01:39:39;;;;;;;4.83;4.20;;;22.30;99.90;;;;;;5051615;28;20281;-78
2021/09/10 01:42:05;;;;;;;6.00;5.37;;;22.30;99.90;;;;;;5037967;28;20726;-78
2021/09/10 01:44:30;;;;;;;6.03;5.43;;;22.30;99.90;;;;;;5053946;28;20177;-77
2021/09/10 01:46:56;;;;;;;5.20;4.80;;;22.30;99.90;;;;;;5017425;28;20200;-78
2021/09/10 01:49:22;;;;;;;5.90;5.30;;;22.30;99.90;;;;;;5034394;28;20181;-78
2021/09/10 01:51:47;;;;;;;5.00;4.50;;;22.30;99.90;;;;;;5051907;28;20263;-77
2021/09/10 01:54:13;;;;;;;4.30;3.90;;;22.30;99.90;;;;;;5052193;28;20165;-77
2021/09/10 01:56:39;;;;;;;4.30;3.90;;;22.30;99.90;;;;;;5033848;28;20184;-77
2021/09/10 01:59:05;;;;;;;5.30;4.73;;;22.30;99.90;;;;;;5052178;28;20559;-77
2021/09/10 02:01:35;;;;;;;3.50;3.20;;;22.30;99.90;;;;;;5034227;28;20175;-76
2021/09/10 02:04:01;;;;;;;4.60;4.20;;;22.30;99.90;;;;;;5052388;28;20560;-78
2021/09/10 02:06:27;;;;;;;4.50;3.40;;;22.30;99.90;;;;;;5051914;28;21026;-78
2021/09/10 02:08:53;;;;;;;3.47;3.27;;;22.30;99.90;;;;;;5051384;28;20717;-76
2021/09/10 02:11:20;;;;;;;3.83;3.50;;;22.30;99.90;;;;;;5051880;28;20587;-76
2021/09/10 02:13:46;;;;;;;5.50;3.93;;;22.30;99.90;;;;;;5052034;28;20571;-77
2021/09/10 02:16:12;;;;;;;4.90;4.50;;;22.30;99.90;;;;;;5052007;28;20560;-77
2021/09/10 02:18:39;;;;;;;4.77;4.37;;;22.30;99.90;;;;;;5052166;28;20562;-76
2021/09/10 02:21:05;;;;;;;4.13;3.83;;;22.30;99.90;;;;;;5034439;28;20708;-77
2021/09/10 02:23:31;;;;;;;4.70;4.30;;;22.30;99.90;;;;;;5051603;28;20573;-76
2021/09/10 02:25:57;;;;;;;4.90;4.50;;;22.30;99.90;;;;;;5051291;28;20567;-77
2021/09/10 02:28:25;;;;;;;5.83;5.30;;;22.20;99.90;;;;;;5054685;28;20650;-77
2021/09/10 02:30:51;;;;;;;5.53;4.50;;;22.20;99.90;;;;;;5055394;28;20614;-77
2021/09/10 02:33:17;;;;;;;4.17;3.83;;;22.20;99.90;;;;;;5055583;28;20578;-77
2021/09/10 02:35:43;;;;;;;4.50;4.10;;;22.10;99.90;;;;;;5037466;28;20694;-78
2021/09/10 02:38:09;;;;;;;4.30;4.00;;;22.10;99.90;;;;;;5055375;28;20667;-78
2021/09/10 02:40:35;;;;;;;5.67;5.10;;;22.10;99.90;;;;;;5037297;28;20204;-76
2021/09/10 02:43:01;;;;;;;4.47;4.07;;;22.10;99.90;;;;;;5055740;28;20567;-77
2021/09/10 02:45:27;;;;;;;6.20;5.73;;;22.00;99.90;;;;;;5055060;28;20591;-78
2021/09/10 02:47:53;;;;;;;5.03;4.63;;;22.00;99.90;;;;;;5055539;28;20630;-76
2021/09/10 02:50:18;;;;;;;11.33;4.00;;;22.00;99.90;;;;;;5061590;28;20204;-77
2021/09/10 02:52:44;;;;;;;4.50;4.13;;;22.00;99.90;;;;;;5037490;28;20186;-76
2021/09/10 02:55:10;;;;;;;4.47;3.93;;;22.00;99.90;;;;;;5074691;28;20184;-77
2021/09/10 02:57:37;;;;;;;3.80;3.50;;;22.00;99.90;;;;;;5071687;28;20181;-76
2021/09/10 03:00:05;;;;;;;4.60;4.20;;;22.00;99.90;;;;;;5072284;28;20676;-76
2021/09/10 03:02:35;;;;;;;4.93;3.60;;;22.00;99.90;;;;;;5062679;28;20667;-76
2021/09/10 03:05:03;;;;;;;5.57;4.70;;;22.00;99.90;;;;;;5072314;28;21122;-76
2021/09/10 03:07:29;;;;;;;4.20;3.90;;;21.90;99.90;;;;;;5052335;28;20639;-76
2021/09/10 03:09:54;;;;;;;4.50;4.10;;;21.90;99.90;;;;;;5055986;28;20615;-77
2021/09/10 03:12:20;;;;;;;5.33;4.93;;;21.90;99.90;;;;;;5058095;28;20161;-78
2021/09/10 03:14:46;;;;;;;5.00;4.50;;;21.90;99.90;;;;;;5042808;28;20167;-78
2021/09/10 03:17:11;;;;;;;4.53;4.20;;;21.90;99.90;;;;;;5055313;28;20177;-78
2021/09/10 03:19:37;;;;;;;5.07;4.40;;;21.90;99.90;;;;;;5054672;28;20288;-78
2021/09/10 03:22:03;;;;;;;5.00;4.10;;;21.90;99.90;;;;;;5055799;28;20509;-78
2021/09/10 03:24:29;;;;;;;4.13;3.83;;;21.90;99.90;;;;;;5055674;28;20177;-77
2021/09/10 03:26:54;;;;;;;4.53;4.13;;;21.90;99.90;;;;;;5054929;28;20181;-77
2021/09/10 03:29:20;;;;;;;5.50;4.40;;;21.90;99.90;;;;;;5054276;28;20224;-76
2021/09/10 03:31:46;;;;;;;3.73;3.43;;;21.90;99.90;;;;;;5062956;28;20169;-77
2021/09/10 03:34:11;;;;;;;4.30;3.90;;;21.90;99.90;;;;;;5048353;28;20267;-77
2021/09/10 03:36:37;;;;;;;3.90;3.60;;;21.90;99.90;;;;;;5050381;28;20548;-77
2021/09/10 03:39:02;;;;;;;4.70;4.07;;;21.90;99.90;;;;;;5044829;28;20173;-78
2021/09/10 03:41:28;;;;;;;4.70;4.30;;;21.90;99.90;;;;;;5054431;28;20169;-77
2021/09/10 03:43:54;;;;;;;4.30;3.90;;;21.90;99.90;;;;;;5054134;28;20583;-77
2021/09/10 03:46:20;;;;;;;4.87;3.60;;;21.90;99.90;;;;;;5054332;28;20545;-77
2021/09/10 03:48:46;;;;;;;4.23;3.70;;;21.90;99.90;;;;;;5053471;28;20247;-77
2021/09/10 03:51:12;;;;;;;4.60;4.30;;;21.80;99.90;;;;;;5054163;28;20686;-77
2021/09/10 03:53:38;;;;;;;4.27;3.87;;;21.80;99.90;;;;;;5053734;28;20654;-77
2021/09/10 03:56:04;;;;;;;4.67;4.17;;;21.80;99.90;;;;;;5053886;28;20173;-77
2021/09/10 03:58:30;;;;;;;7.30;4.80;;;21.80;99.90;;;;;;5053636;28;20556;-77
2021/09/10 04:00:57;;;;;;;5.03;4.30;;;21.80;99.90;;;;;;5054117;28;20609;-77
2021/09/10 04:03:24;;;;;;;4.40;3.60;;;21.80;99.90;;;;;;5053877;28;20574;-78
2021/09/10 04:05:51;;;;;;;4.53;3.57;;;21.80;99.90;;;;;;5054428;28;20571;-76
2021/09/10 04:08:17;;;;;;;3.93;3.57;;;21.70;99.90;;;;;;5058145;28;20613;-78
2021/09/10 04:10:43;;;;;;;4.43;4.13;;;21.70;99.90;;;;;;5053402;28;20602;-77
2021/09/10 04:13:10;;;;;;;3.93;3.47;;;21.70;99.90;;;;;;5052541;28;20567;-78
2021/09/10 04:15:36;;;;;;;3.70;3.40;;;21.70;99.90;;;;;;5052429;28;20567;-78
2021/09/10 04:18:02;;;;;;;4.20;3.80;;;21.70;99.90;;;;;;5053326;28;21046;-78
2021/09/10 04:20:28;;;;;;;4.47;4.07;;;21.60;99.90;;;;;;5052077;28;20710;-78
2021/09/10 04:22:54;;;;;;;5.30;3.93;;;21.60;99.90;;;;;;5074270;23;20674;-75
2021/09/10 04:25:20;;;;;;;5.23;4.43;;;21.60;99.90;;;;;;5053044;28;20675;-75
2021/09/10 04:27:46;;;;;;;7.97;4.00;;;21.60;99.90;;;;;;5063453;28;20322;-75
2021/09/10 04:30:12;;;;;;;6.23;3.60;;;21.60;99.90;;;;;;5026083;28;20600;-75
2021/09/10 04:32:38;;;;;;;4.23;3.93;;;21.60;99.90;;;;;;5053135;28;20587;-75
2021/09/10 04:35:06;;;;;;;5.77;4.20;;;21.60;99.90;;;;;;5041665;28;20262;-75
2021/09/10 04:37:31;;;;;;;6.03;3.70;;;21.60;99.90;;;;;;5052120;28;20586;-75
2021/09/10 04:39:57;;;;;;;4.10;3.70;;;21.60;99.90;;;;;;5052671;28;21127;-75
2021/09/10 04:42:23;;;;;;;3.70;3.40;;;21.50;99.90;;;;;;5047326;28;20165;-75
2021/09/10 04:44:49;;;;;;;4.60;4.03;;;21.50;99.90;;;;;;5052578;28;20636;-75
2021/09/10 04:47:14;;;;;;;7.57;4.10;;;21.50;99.90;;;;;;5052347;28;21182;-75
2021/09/10 04:49:41;;;;;;;5.03;4.53;;;21.50;99.90;;;;;;5052072;28;20185;-75
2021/09/10 04:52:07;;;;;;;6.03;3.60;;;21.60;99.90;;;;;;5052826;28;20199;-75
2021/09/10 04:54:33;;;;;;;5.33;4.83;;;21.60;99.90;;;;;;5040413;28;20623;-76
2021/09/10 04:56:59;;;;;;;3.93;3.63;;;21.60;99.90;;;;;;5054619;28;21149;-75
2021/09/10 04:59:25;;;;;;;4.70;4.30;;;21.60;99.90;;;;;;5052846;28;20165;-75
2021/09/10 05:01:51;;;;;;;4.43;4.03;;;21.60;99.90;;;;;;5051617;28;20601;-75
2021/09/10 05:04:18;;;;;;;5.03;4.27;;;21.60;99.90;;;;;;5052505;28;20580;-75
2021/09/10 05:06:44;;;;;;;4.57;4.17;;;21.60;99.90;;;;;;5052240;28;20598;-75
2021/09/10 05:09:10;;;;;;;5.60;5.10;;;21.60;99.90;;;;;;5034634;28;20580;-75
2021/09/10 05:11:35;;;;;;;4.90;4.50;;;21.60;99.90;;;;;;5051842;28;21166;-75
2021/09/10 05:14:01;;;;;;;7.00;4.50;;;21.60;99.90;;;;;;5052309;28;20216;-75
2021/09/10 05:16:27;;;;;;;5.30;4.90;;;21.60;99.90;;;;;;5051343;28;20621;-75
2021/09/10 05:18:53;;;;;;;4.60;4.20;;;21.60;99.90;;;;;;5050718;28;20194;-75
2021/09/10 05:21:18;;;;;;;4.83;4.43;;;21.60;99.90;;;;;;5052490;28;20180;-75
2021/09/10 05:23:44;;;;;;;4.37;3.97;;;21.60;99.90;;;;;;5050837;28;20263;-75
2021/09/10 05:26:10;;;;;;;4.40;3.77;;;21.60;99.90;;;;;;5051058;28;20184;-75
2021/09/10 05:28:36;;;;;;;5.27;3.80;;;21.60;99.90;;;;;;5034118;28;20209;-75
2021/09/10 05:31:02;;;;;;;4.50;4.20;;;21.60;99.90;;;;;;5053204;28;20169;-75
2021/09/10 05:33:28;;;;;;;5.43;5.03;;;21.60;99.90;;;;;;5054680;28;20547;-75
2021/09/10 05:35:54;;;;;;;7.30;4.20;;;21.60;99.90;;;;;;5034281;28;20574;-76
2021/09/10 05:38:19;;;;;;;5.53;5.13;;;21.60;99.90;;;;;;5050679;28;20575;-76
2021/09/10 05:40:45;;;;;;;4.83;4.43;;;21.70;99.90;;;;;;5050793;28;20203;-76
2021/09/10 05:43:11;;;;;;;4.93;4.30;;;21.70;99.90;;;;;;5052193;28;20564;-76
2021/09/10 05:45:36;;;;;;;4.80;4.30;;;21.70;99.90;;;;;;5033800;28;20176;-76
2021/09/10 05:48:02;;;;;;;4.47;4.07;;;21.70;99.90;;;;;;5050291;28;20200;-76
2021/09/10 05:50:28;;;;;;;6.00;4.60;;;21.80;99.90;;;;;;5051699;28;20169;-76
2021/09/10 05:52:54;;;;;;;5.10;4.70;;;21.80;99.90;;;;;;5051714;28;20629;-76
2021/09/10 05:55:19;;;;;;;5.30;4.80;;;21.80;99.90;;;;;;5050477;28;20160;-77
2021/09/10 05:57:45;;;;;;;5.33;4.60;;;21.80;99.90;;;;;;5051272;28;20169;-77
2021/09/10 06:00:11;;;;;;;4.80;4.40;;;21.80;99.90;;;;;;5051865;28;20561;-77
2021/09/10 06:02:39;;;;;;;4.80;4.40;;;21.80;99.90;;;;;;5049552;28;20226;-77
2021/09/10 06:05:05;;;;;;;4.27;3.87;;;21.90;99.90;;;;;;5053773;28;20626;-76
2021/09/10 06:07:32;;;;;;;4.27;3.93;;;21.90;99.90;;;;;;5050842;28;20615;-76
2021/09/10 06:09:58;;;;;;;5.13;4.27;;;22.00;99.90;;;;;;5054308;28;20578;-76
2021/09/10 06:12:24;;;;;;;4.33;3.93;;;22.00;99.90;;;;;;5051896;28;20571;-76
2021/09/10 06:14:50;;;;;;;6.77;4.53;;;22.10;99.90;;;;;;5033784;28;20534;-76
2021/09/10 06:17:16;;;;;;;7.67;4.00;;;22.20;99.90;;;;;;5050061;28;20583;-76
2021/09/10 06:19:42;;;;;;;4.93;4.53;;;22.20;99.90;;;;;;5050266;28;20595;-76
2021/09/10 06:22:07;;;;;;;4.53;4.10;;;22.30;99.90;;;;;;5051200;28;20256;-75
2021/09/10 06:24:33;;;;;;;4.17;3.50;;;22.40;99.90;;;;;;5051407;28;20566;-75
2021/09/10 06:26:59;;;;;;;5.93;4.73;;;22.50;99.90;;;;;;5049815;28;20260;-75
2021/09/10 06:29:24;;;;;;;5.07;3.50;;;22.60;99.90;;;;;;5051192;28;20196;-76
2021/09/10 06:31:51;;;;;;;4.13;3.73;;;22.60;99.90;;;;;;5050590;28;20165;-75
2021/09/10 06:34:22;;;;;;;4.43;4.10;;;22.70;99.90;;;;;;5050075;28;20288;-75
2021/09/10 06:36:50;;;;;;;4.70;4.17;;;22.70;99.90;;;;;;5051071;28;21165;-75
2021/09/10 06:39:17;;;;;;;5.30;3.50;;;22.80;99.90;;;;;;5050002;28;20984;-75
2021/09/10 06:41:44;;;;;;;4.20;3.80;;;22.90;99.90;;;;;;5050143;28;21025;-75
2021/09/10 06:44:10;;;;;;;3.50;3.20;;;23.00;99.90;;;;;;5052178;28;21464;-76
2021/09/10 06:46:36;;;;;;;3.30;3.00;;;23.10;99.90;;;;;;5052084;28;20591;-75
2021/09/10 06:49:02;;;;;;;3.77;3.37;;;23.20;99.90;;;;;;5051326;28;20680;-75
2021/09/10 06:51:27;;;;;;;4.60;3.90;;;23.30;99.90;;;;;;5051200;28;20598;-76
2021/09/10 06:53:53;;;;;;;4.00;3.67;;;23.50;99.90;;;;;;5033693;28;20212;-75
2021/09/10 06:56:19;;;;;;;4.13;2.93;;;23.60;99.90;;;;;;5050106;28;20316;-74
2021/09/10 06:58:45;;;;;;;4.03;3.63;;;23.90;99.90;;;;;;5049597;28;20173;-75
2021/09/10 07:01:11;;;;;;;5.53;3.10;;;24.20;99.90;;;;;;5050392;28;20172;-75
2021/09/10 07:03:37;;;;;;;3.40;3.10;;;24.60;99.90;;;;;;5050062;28;20599;-75
2021/09/10 07:06:03;;;;;;;3.77;2.70;;;25.10;99.90;;;;;;5049848;28;20935;-75
2021/09/10 07:08:30;;;;;;;3.07;2.50;;;25.30;99.90;;;;;;5050781;28;20200;-76
2021/09/10 07:10:57;;;;;;;3.03;2.73;;;25.40;99.90;;;;;;5049964;28;20165;-75
2021/09/10 07:13:23;;;;;;;3.23;2.93;;;25.50;99.90;;;;;;5051842;28;20599;-75
2021/09/10 07:15:49;;;;;;;5.67;3.90;;;25.50;99.90;;;;;;5054808;28;20571;-75
2021/09/10 07:18:14;;;;;;;3.70;2.93;;;25.50;99.90;;;;;;5054299;28;20572;-78
2021/09/10 07:20:40;;;;;;;3.20;2.90;;;25.40;99.90;;;;;;5056729;28;20195;-77
2021/09/10 07:23:06;;;;;;;6.60;2.83;;;25.40;99.90;;;;;;5055464;28;20541;-76
2021/09/10 07:25:31;;;;;;;3.00;2.50;;;25.40;99.90;;;;;;5054964;28;20177;-77
2021/09/10 07:27:57;;;;;;;5.63;4.17;;;25.40;99.90;;;;;;5054020;28;20234;-77
2021/09/10 07:30:23;;;;;;;4.20;2.93;;;25.50;99.90;;;;;;5053506;28;20216;-77
2021/09/10 07:32:48;;;;;;;3.50;3.20;;;25.60;99.90;;;;;;5054593;28;20168;-77
2021/09/10 07:35:14;;;;;;;3.50;2.83;;;25.70;99.90;;;;;;5053605;28;20617;-77
2021/09/10 07:37:40;;;;;;;2.93;2.53;;;25.70;99.90;;;;;;5053155;28;20169;-77
2021/09/10 07:40:06;;;;;;;4.13;2.40;;;25.80;99.90;;;;;;5054611;28;20169;-77
2021/09/10 07:42:32;;;;;;;3.70;2.50;;;25.80;99.90;;;;;;5055450;28;20683;-77
2021/09/10 07:44:58;;;;;;;2.80;2.57;;;25.90;99.90;;;;;;5054592;28;20603;-77
2021/09/10 07:47:24;;;;;;;3.37;2.40;;;25.90;99.90;;;;;;5054258;28;20211;-77
2021/09/10 07:49:49;;;;;;;2.93;2.50;;;26.10;99.90;;;;;;5054410;28;20169;-77
2021/09/10 07:52:15;;;;;;;4.07;2.67;;;26.20;99.90;;;;;;5055478;28;20178;-77
2021/09/10 07:54:41;;;;;;;2.30;2.00;;;26.40;99.90;;;;;;5054303;28;20188;-77
2021/09/10 07:57:07;;;;;;;2.50;1.73;;;26.60;99.90;;;;;;5038422;28;20519;-77
2021/09/10 07:59:32;;;;;;;2.20;2.00;;;26.80;99.90;;;;;;5061477;28;20276;-77
2021/09/10 08:01:58;;;;;;;2.77;1.93;;;27.00;99.90;;;;;;5055006;28;20169;-76
2021/09/10 08:04:25;;;;;;;2.80;2.13;;;27.20;99.90;;;;;;5056213;28;20188;-77
2021/09/10 08:06:51;;;;;;;2.33;1.77;;;27.30;99.90;;;;;;5036896;28;20219;-77
2021/09/10 08:09:17;;;;;;;2.33;2.10;;;27.60;99.90;;;;;;5052917;28;20702;-77
2021/09/10 08:11:42;;;;;;;3.00;2.00;;;27.90;99.90;;;;;;5044770;28;20157;-77
2021/09/10 08:14:10;;;;;;;2.93;1.93;;;28.10;99.90;;;;;;5056377;28;20185;-77
2021/09/10 08:16:35;;;;;;;5.60;1.80;;;28.40;99.90;;;;;;5037089;28;20733;-77
2021/09/10 08:19:02;;;;;;;2.20;1.63;;;28.70;99.90;;;;;;5036222;28;20582;-76
2021/09/10 08:21:27;;;;;;;2.77;1.90;;;28.90;99.90;;;;;;5021437;28;20177;-77
2021/09/10 08:23:53;;;;;;;3.30;1.90;;;29.10;99.90;;;;;;5054557;28;20746;-77
2021/09/10 08:26:19;;;;;;;3.00;2.20;;;29.20;99.90;;;;;;5053883;28;20177;-77
2021/09/10 08:28:44;;;;;;;2.13;1.83;;;29.40;99.90;;;;;;5053162;28;20195;-77
2021/09/10 08:31:10;;;;;;;2.00;1.70;;;29.60;99.90;;;;;;5054077;28;20161;-76
2021/09/10 08:33:36;;;;;;;2.10;1.57;;;29.70;99.90;;;;;;5036159;28;20220;-75
2021/09/10 08:36:02;;;;;;;2.80;1.60;;;29.70;99.90;;;;;;5019554;28;20576;-76
2021/09/10 08:38:29;;;;;;;2.07;1.73;;;29.80;99.90;;;;;;5052918;28;20571;-75
2021/09/10 08:40:57;;;;;;;2.10;1.77;;;29.80;99.90;;;;;;5018869;28;20583;-75
2021/09/10 08:43:26;;;;;;;2.40;1.50;;;29.80;99.90;;;;;;5018083;28;21053;-75
2021/09/10 08:45:56;;;;;;;2.43;2.10;;;29.80;99.90;;;;;;5052082;28;20638;-75
2021/09/10 08:48:24;;;;;;;2.60;1.70;;;29.90;99.90;;;;;;5043183;28;20715;-75
2021/09/10 08:50:50;;;;;;;2.40;1.50;;;30.00;99.90;;;;;;5053024;28;20621;-75
2021/09/10 08:53:16;;;;;;;4.00;1.90;;;30.00;99.90;;;;;;5051565;28;21174;-76
2021/09/10 08:55:43;;;;;;;2.07;1.30;;;30.20;99.90;;;;;;5052938;28;20575;-75
2021/09/10 08:58:09;;;;;;;3.10;1.50;;;30.70;99.90;;;;;;5051327;28;20173;-75
2021/09/10 09:00:37;;;;;;;2.03;1.20;;;31.50;99.90;;;;;;5034329;28;20949;-76
2021/09/10 09:03:12;;;;;;;3.17;1.33;;;32.20;99.90;;;;;;5051535;28;20970;-76
2021/09/10 09:05:39;;;;;;;2.20;1.33;;;32.80;99.90;;;;;;5049907;28;20574;-76
2021/09/10 09:08:18;;;;;;;1.50;1.20;;;33.40;99.90;;;;;;5051558;28;21069;-76
2021/09/10 09:11:06;;;;;;;3.07;1.40;;;34.00;99.90;;;;;;5051793;28;20578;-76
2021/09/10 09:13:39;;;;;;;3.77;1.23;;;34.30;99.90;;;;;;5050830;28;20599;-76
2021/09/10 09:16:21;;;;;;;3.00;1.00;;;35.00;99.90;;;;;;5050706;28;20608;-76
2021/09/10 09:18:51;;;;;;;1.80;1.10;;;35.80;99.90;;;;;;5050914;28;20594;-76
2021/09/10 09:21:31;;;;;;;2.33;1.30;;;36.60;99.90;;;;;;5052375;28;20572;-76
2021/09/10 09:24:13;;;;;;;1.63;1.00;;;37.00;99.90;;;;;;5034254;28;20627;-77
2021/09/10 09:26:38;;;;;;;1.60;1.00;;;37.20;99.90;;;;;;5050388;28;20631;-76
2021/09/10 09:29:10;;;;;;;1.87;1.20;;;37.20;99.90;;;;;;5052083;28;20654;-76
2021/09/10 09:31:38;;;;;;;2.40;1.20;;;37.30;99.00;;;;;;5034109;28;20201;-76
2021/09/10 09:34:05;;;;;;;2.47;1.13;;;37.20;98.30;;;;;;5045361;28;20955;-76
2021/09/10 09:36:31;;;;;;;2.73;1.47;;;37.00;97.00;;;;;;5050951;28;20587;-76
2021/09/10 09:38:58;;;;;;;2.33;1.50;;;36.70;96.50;;;;;;5051104;28;20653;-76
2021/09/10 09:41:25;;;;;;;1.83;1.30;;;36.30;95.30;;;;;;5051693;28;20571;-76
2021/09/10 09:44:10;;;;;;;2.27;1.27;;;35.90;94.70;;;;;;5045559;28;20626;-76
2021/09/10 09:46:36;;;;;;;3.27;1.37;;;35.40;94.00;;;;;;5052969;28;20630;-76
2021/09/10 09:49:11;;;;;;;2.73;1.23;;;35.00;94.50;;;;;;5051618;28;20626;-76
2021/09/10 09:51:59;;;;;;;3.53;1.13;;;34.60;94.00;;;;;;5052106;28;20190;-76
2021/09/10 09:54:25;;;;;;;2.50;1.60;;;34.20;94.30;;;;;;5050709;28;20608;-76
2021/09/10 09:56:53;;;;;;;3.30;3.00;;;33.90;94.80;;;;;;5050209;28;20681;-76
2021/09/10 09:59:19;;;;;;;4.70;3.97;;;33.60;95.20;;;;;;5017496;28;21182;-76
2021/09/10 10:01:46;;;;;;;3.80;3.20;;;33.40;95.20;;;;;;5050372;28;20576;-76
2021/09/10 10:04:11;;;;;;;2.00;1.60;;;33.20;95.20;;;;;;5051568;28;21159;-76
2021/09/10 10:06:38;;;;;;;2.57;1.23;;;33.00;95.10;;;;;;5051003;28;20570;-76
2021/09/10 10:09:10;;;;;;;5.13;2.50;;;32.80;94.90;;;;;;5033718;28;20288;-76
2021/09/10 10:11:41;;;;;;;5.53;5.03;;;32.50;95.00;;;;;;5050532;28;20583;-75
2021/09/10 10:14:07;;;;;;;7.80;6.83;;;32.20;95.20;;;;;;5050145;28;20615;-76
2021/09/10 10:16:38;;;;;;;5.13;4.47;;;31.90;95.20;;;;;;5050429;28;20578;-76
2021/09/10 10:19:27;;;;;;;3.47;3.17;;;31.60;95.00;;;;;;5051580;28;20667;-75
2021/09/10 10:21:56;;;;;;;2.73;2.10;;;31.30;95.30;;;;;;5050357;28;20682;-75
2021/09/10 10:24:52;;;;;;;1.80;1.00;;;30.90;95.70;;;;;;5061062;23;20671;-77
2021/09/10 10:27:33;;;;;;;1.77;0.90;;;30.60;96.00;;;;;;5043843;28;20627;-79
2021/09/10 10:30:05;;;;;;;1.50;0.70;;;30.30;96.30;;;;;;5030247;28;20587;-78
2021/09/10 10:32:33;;;;;;;1.30;0.60;;;30.00;96.60;;;;;;5056921;28;20585;-76
2021/09/10 10:35:21;;;;;;;1.40;0.63;;;29.60;96.90;;;;;;5059068;28;20607;-78
2021/09/10 10:37:51;;;;;;;2.77;1.30;;;29.30;97.40;;;;;;5053370;28;20618;-78
2021/09/10 10:40:31;;;;;;;2.27;1.00;;;28.90;97.80;;;;;;5052825;28;20567;-78
2021/09/10 10:43:00;;;;;;;1.30;0.80;;;28.60;98.50;;;;;;5036040;28;20605;-78
2021/09/10 10:45:41;;;;;;;1.60;0.80;;;28.30;99.10;;;;;;5053210;28;20653;-79
2021/09/10 10:48:29;;;;;;;2.13;0.80;;;28.10;99.90;;;;;;5053535;28;20629;-79
2021/09/10 10:50:59;;;;;;;1.57;0.83;;;27.90;99.90;;;;;;5038659;28;20577;-79
2021/09/10 10:53:24;;;;;;;1.37;0.70;;;27.70;99.90;;;;;;5056625;28;20576;-78
2021/09/10 10:55:50;;;;;;;1.20;0.70;;;27.50;99.90;;;;;;5036574;28;20592;-79
2021/09/10 10:58:24;;;;;;;1.50;0.80;;;27.40;99.90;;;;;;5035434;28;20219;-79
2021/09/10 11:00:51;;;;;;;1.17;0.70;;;27.30;99.90;;;;;;5037106;28;20177;-78
2021/09/10 11:03:21;;;;;;;1.53;0.70;;;27.10;99.90;;;;;;5050558;28;21127;-78
2021/09/10 11:05:51;;;;;;;1.20;0.80;;;27.00;99.90;;;;;;5048627;28;20587;-79
2021/09/10 11:08:37;;;;;;;1.40;0.90;;;26.90;99.90;;;;;;5057894;28;20627;-79
2021/09/10 11:11:03;;;;;;;1.60;0.80;;;26.70;99.90;;;;;;5047954;28;20599;-79
2021/09/10 11:13:29;;;;;;;3.10;1.20;;;26.70;99.90;;;;;;5056142;28;20673;-79
2021/09/10 11:15:56;;;;;;;1.47;0.60;;;26.60;99.90;;;;;;5055655;28;20662;-79
2021/09/10 11:18:24;;;;;;;1.50;0.80;;;26.60;99.90;;;;;;5054460;28;21366;-79
2021/09/10 11:20:53;;;;;;;2.53;0.80;;;26.60;99.90;;;;;;5055374;28;20594;-80
2021/09/10 11:23:28;;;;;;;2.80;0.80;;;26.60;99.90;;;;;;5055255;28;21238;-79
2021/09/10 11:25:55;;;;;;;1.87;0.80;;;26.70;99.90;;;;;;5055725;28;20602;-79
2021/09/10 11:28:25;;;;;;;2.20;0.93;;;26.80;99.90;;;;;;5053681;28;20987;-80
2021/09/10 11:30:52;;;;;;;2.03;0.60;;;26.90;99.90;;;;;;5056253;28;20662;-79
2021/09/10 11:33:18;;;;;;;2.17;0.70;;;27.10;99.90;;;;;;5044527;28;20571;-80
2021/09/10 11:35:46;;;;;;;1.40;0.60;;;27.30;99.90;;;;;;5053495;28;20602;-80
2021/09/10 11:38:15;;;;;;;1.80;0.80;;;27.40;99.90;;;;;;5055102;28;21069;-80
2021/09/10 11:40:49;;;;;;;1.70;0.90;;;27.60;99.90;;;;;;5057962;28;20590;-78
2021/09/10 11:43:21;;;;;;;1.87;0.93;;;27.80;99.90;;;;;;5055783;28;20567;-77
2021/09/10 11:45:51;;;;;;;1.30;0.77;;;28.10;99.90;;;;;;5054704;28;20594;-76
2021/09/10 11:48:39;;;;;;;2.17;0.80;;;28.40;99.90;;;;;;5037384;28;20692;-76
2021/09/10 11:51:06;;;;;;;2.00;1.10;;;28.70;99.90;;;;;;5053787;28;20579;-77
2021/09/10 11:53:34;;;;;;;1.47;1.00;;;29.00;99.90;;;;;;5053540;28;20634;-76
2021/09/10 11:56:06;;;;;;;1.80;0.90;;;29.30;99.90;;;;;;5053264;28;20599;-75
2021/09/10 11:58:41;;;;;;;1.57;1.07;;;29.50;99.90;;;;;;5036111;28;20637;-76
2021/09/10 12:01:31;;;;;;;2.43;0.80;;;29.70;99.90;;;;;;5053338;28;21184;-77
2021/09/10 12:04:03;;;;;;;1.70;1.00;;;29.90;99.90;;;;;;5053879;28;20607;-77
2021/09/10 12:06:51;;;;;;;1.80;0.77;;;30.10;99.90;;;;;;5052506;28;20681;-77
2021/09/10 12:09:32;;;;;;;1.57;1.10;;;30.30;99.90;;;;;;5058362;28;20662;-76
2021/09/10 12:12:03;;;;;;;2.07;1.00;;;30.70;99.90;;;;;;5053012;28;20579;-76
2021/09/10 12:14:52;;;;;;;1.80;1.00;;;31.10;99.90;;;;;;5049143;28;21226;-76
2021/09/10 12:17:23;;;;;;;1.57;1.03;;;31.30;99.90;;;;;;5047532;28;20591;-77
2021/09/10 12:19:56;;;;;;;2.17;1.03;;;31.50;99.90;;;;;;5044798;28;20642;-75
2021/09/10 12:22:37;;;;;;;2.67;1.10;;;31.50;99.90;;;;;;5053070;28;20592;-75
2021/09/10 12:25:20;;;;;;;2.33;1.10;;;31.50;99.90;;;;;;5049064;28;20672;-77
2021/09/10 12:28:10;;;;;;;2.53;1.10;;;31.40;99.90;;;;;;5057624;28;20634;-77
2021/09/10 12:30:58;;;;;;;1.50;1.00;;;31.30;99.90;;;;;;5053646;28;20923;-77
2021/09/10 12:33:26;;;;;;;1.47;1.13;;;31.10;99.90;;;;;;5038304;28;20601;-75
2021/09/10 12:35:54;;;;;;;2.80;1.00;;;31.00;99.90;;;;;;5041522;28;20605;-77
2021/09/10 12:38:22;;;;;;;1.60;1.10;;;30.80;99.90;;;;;;5034736;28;21017;-76
2021/09/10 12:40:53;;;;;;;1.40;0.90;;;30.50;99.90;;;;;;5052320;28;20590;-76
2021/09/10 12:43:21;;;;;;;1.60;0.93;;;30.20;99.90;;;;;;5053623;28;20674;-76
2021/09/10 12:45:48;;;;;;;1.73;1.07;;;30.00;99.90;;;;;;5058574;28;20567;-76
2021/09/10 12:48:16;;;;;;;1.70;1.00;;;29.80;99.90;;;;;;5051798;28;21217;-77
2021/09/10 12:50:43;;;;;;;2.13;1.10;;;29.60;99.90;;;;;;5051896;28;20617;-76
2021/09/10 12:53:09;;;;;;;1.40;0.93;;;29.50;99.90;;;;;;5052837;28;20556;-76